This is the latest recevied weather packets stored in our database for station/object K7MT-WX. If no packets are shown the sender has not sent any weather packets the latest 1 day(s).
| Time | Temp. | Humidity | Pressure | Rain* | Wind** | Luminosity | Snow |
|---|---|---|---|---|---|---|---|
| 1778096232 | 16.11° C | 32% | 1013.4 hPa | 0 mm | - | - | - |
| 1778095332 | 16.11° C | 32% | 1013.7 hPa | 0 mm | - | - | - |
| 1778093532 | 14.44° C | 33% | 1014.4 hPa | 0 mm | - | - | - |
| 1778092632 | 14.44° C | 32% | 1014.7 hPa | 0 mm | - | - | - |
| 1778091732 | 13.33° C | 32% | 1014.9 hPa | 0 mm | - | - | - |
| 1778090832 | 12.78° C | 35% | 1015.3 hPa | 0 mm | - | - | - |
| 1778089932 | 12.22° C | 35% | 1015.5 hPa | 0 mm | - | - | - |
| 1778089032 | 11.67° C | 35% | 1015.9 hPa | 0 mm | - | - | - |
| 1778088132 | 11.67° C | 39% | 1016 hPa | 0 mm | - | - | - |
| 1778086332 | 10° C | 41% | 1016.5 hPa | 0 mm | - | - | - |
| 1778085432 | 8.89° C | 43% | 1016.9 hPa | 0 mm | - | - | - |
| 1778084532 | 8.89° C | 47% | 1017.2 hPa | 0 mm | - | - | - |
| 1778082732 | 7.78° C | 53% | 1017.7 hPa | 0 mm | - | - | - |
| 1778081832 | 6.67° C | 56% | 1017.9 hPa | 0 mm | - | - | - |
| 1778079132 | 1.67° C | 71% | 1018.4 hPa | 0 mm | - | - | - |
| 1778078232 | 0.56° C | 74% | 1018.6 hPa | 0 mm | - | - | - |
| 1778077332 | -0.56° C | 78% | 1018.8 hPa | 0 mm | - | - | - |
| 1778056631 | -2.22° C | 77% | 1019.3 hPa | 0 mm | - | - | - |
| 1778054831 | -1.11° C | 74% | 1019.4 hPa | 0 mm | - | - | - |
| 1778052131 | -0.56° C | 73% | 1019.7 hPa | 0 mm | - | - | - |
| 1778050331 | -0.56° C | 72% | 1019.8 hPa | 0 mm | - | - | - |
| 1778049431 | -0.56° C | 71% | 1019.8 hPa | 0 mm | - | - | - |
| 1778048531 | -0.56° C | 72% | 1019.6 hPa | 0 mm | - | - | - |
| 1778046731 | 0° C | 70% | 1019.5 hPa | 0 mm | - | - | - |
| 1778045831 | 0.56° C | 68% | 1019.5 hPa | 0 mm | - | - | - |
* Rain latest hour (hover to see other rain measurements)
** Current wind speed in m/s (hover to see current wind gust speed)